createdAt,value
2018-02-22T00:02:05.772Z,48.90
2018-02-22T00:04:36.906Z,46.13
2018-02-22T00:07:06.896Z,43.35
2018-02-22T00:09:36.349Z,53.17
2018-02-22T00:12:05.777Z,46.63
2018-02-22T00:14:35.376Z,51.67
2018-02-22T00:17:04.831Z,58.65
2018-02-22T00:19:34.069Z,49.60
2018-02-22T00:22:03.637Z,45.50
2018-02-22T00:24:32.859Z,49.95
2018-02-22T00:27:02.240Z,48.78
2018-02-22T00:29:33.301Z,45.85
2018-02-22T00:32:02.692Z,49.47
2018-02-22T00:34:31.912Z,52.45
2018-02-22T00:37:01.144Z,44.80
2018-02-22T00:39:30.584Z,48.10
2018-02-22T00:41:59.820Z,45.10
2018-02-22T00:44:29.205Z,45.47
2018-02-22T00:46:59.201Z,43.60
2018-02-22T00:49:28.607Z,43.78
2018-02-22T00:51:58.448Z,52.53
2018-02-22T00:54:27.902Z,56.22
2018-02-22T00:56:57.316Z,51.50
2018-02-22T00:59:26.542Z,46.85
2018-02-22T01:01:55.898Z,47.67
2018-02-22T01:04:25.125Z,48.22
2018-02-22T01:06:55.289Z,50.12
2018-02-22T01:09:24.533Z,45.97
2018-02-22T01:11:54.276Z,49.47
2018-02-22T01:14:23.500Z,44.95
2018-02-22T01:16:52.957Z,51.13
2018-02-22T01:19:22.187Z,49.60
2018-02-22T01:21:51.534Z,51.85
2018-02-22T01:24:20.764Z,49.35
2018-02-22T01:26:50.163Z,43.15
2018-02-22T01:29:19.394Z,42.92
2018-02-22T01:31:48.637Z,44.10
2018-02-22T01:34:18.065Z,48.97
2018-02-22T01:36:47.341Z,48.83
2018-02-22T01:39:16.655Z,46.92
2018-02-22T01:41:45.903Z,44.67
2018-02-22T01:44:15.678Z,53.92
2018-02-22T01:46:45.086Z,47.42
2018-02-22T01:49:15.304Z,47.28
2018-02-22T01:51:44.568Z,48.35
2018-02-22T01:54:13.914Z,50.47
2018-02-22T01:56:43.148Z,47.40
2018-02-22T01:59:12.385Z,42.78
2018-02-22T02:01:41.809Z,46.60
2018-02-22T02:04:11.039Z,55.50
2018-02-22T02:06:40.417Z,48.72
2018-02-22T02:09:10.260Z,47.70
2018-02-22T02:11:39.629Z,45.95
2018-02-22T02:14:08.912Z,49.40
2018-02-22T02:16:38.187Z,42.13
2018-02-22T02:19:07.423Z,47.13
2018-02-22T02:21:36.721Z,46.67
2018-02-22T02:24:06.402Z,48.17
2018-02-22T02:26:36.005Z,48.63
2018-02-22T02:29:06.174Z,48.17
2018-02-22T02:31:35.561Z,45.85
2018-02-22T02:34:05.113Z,46.05
2018-02-22T02:36:34.363Z,42.50
2018-02-22T02:39:03.683Z,45.20
2018-02-22T02:41:33.389Z,46.40
2018-02-22T02:44:02.702Z,46.00
2018-02-22T02:46:32.400Z,46.63
2018-02-22T02:49:01.806Z,41.55
2018-02-22T02:51:31.046Z,44.15
2018-02-22T02:54:00.501Z,44.25
2018-02-22T02:56:29.796Z,43.25
2018-02-22T02:58:59.938Z,45.08
2018-02-22T03:01:29.665Z,43.00
2018-02-22T03:03:59.756Z,43.65
2018-02-22T03:06:29.309Z,43.90
2018-02-22T03:08:58.552Z,44.42
2018-02-22T03:11:28.124Z,43.60
2018-02-22T03:13:57.416Z,42.30
2018-02-22T03:16:26.993Z,43.28
2018-02-22T03:18:56.344Z,50.10
2018-02-22T03:21:26.499Z,49.17
2018-02-22T03:23:55.733Z,41.90
2018-02-22T03:26:25.852Z,39.47
2018-02-22T03:28:55.604Z,44.25
2018-02-22T03:31:25.389Z,46.28
2018-02-22T03:33:54.664Z,46.92
2018-02-22T03:36:24.799Z,48.35
2018-02-22T03:38:54.093Z,37.92
2018-02-22T03:41:23.874Z,43.33
2018-02-22T03:43:53.714Z,41.88
2018-02-22T03:46:23.020Z,43.87
2018-02-22T03:48:53.227Z,45.03
2018-02-22T03:51:23.255Z,57.85
2018-02-22T03:53:52.637Z,46.50
2018-02-22T03:56:22.471Z,39.00
2018-02-22T03:58:51.727Z,41.85
2018-02-22T04:01:21.201Z,50.70
2018-02-22T04:03:50.472Z,42.92
2018-02-22T04:06:20.609Z,43.85
2018-02-22T04:08:50.145Z,43.72
2018-02-22T04:11:19.903Z,42.08
2018-02-22T04:13:49.125Z,43.30
2018-02-22T04:16:18.501Z,44.03
2018-02-22T04:18:47.765Z,41.42
2018-02-22T04:21:16.996Z,43.00
2018-02-22T04:23:46.391Z,42.70
2018-02-22T04:26:15.629Z,36.50
2018-02-22T04:28:45.203Z,42.92
2018-02-22T04:31:14.416Z,40.95
2018-02-22T04:33:43.797Z,46.42
2018-02-22T04:36:13.036Z,46.17
2018-02-22T04:38:42.403Z,49.95
2018-02-22T04:41:12.454Z,41.90
2018-02-22T04:43:41.824Z,46.03
2018-02-22T04:46:11.058Z,38.85
2018-02-22T04:48:40.419Z,49.90
2018-02-22T04:51:09.866Z,44.03
2018-02-22T04:53:39.110Z,44.92
2018-02-22T04:56:08.532Z,44.08
2018-02-22T04:58:38.456Z,45.75
2018-02-22T05:01:08.586Z,40.47
2018-02-22T05:03:38.604Z,44.45
2018-02-22T05:06:08.337Z,39.35
2018-02-22T05:08:38.012Z,37.40
2018-02-22T05:11:07.416Z,45.85
2018-02-22T05:13:36.796Z,44.40
2018-02-22T05:16:06.020Z,43.30
2018-02-22T05:18:35.313Z,43.30
2018-02-22T05:21:04.812Z,45.40
2018-02-22T05:23:34.043Z,42.80
2018-02-22T05:26:03.275Z,42.70
2018-02-22T05:28:32.725Z,44.78
2018-02-22T05:31:02.666Z,42.50
2018-02-22T05:33:32.138Z,46.47
2018-02-22T05:36:01.763Z,39.85
2018-02-22T05:38:31.157Z,46.50
2018-02-22T05:41:00.384Z,41.88
2018-02-22T05:43:29.772Z,45.03
2018-02-22T05:45:59.763Z,45.75
2018-02-22T05:48:29.117Z,42.05
2018-02-22T05:50:58.344Z,47.90
2018-02-22T05:53:27.581Z,49.83
2018-02-22T05:55:56.984Z,40.58
2018-02-22T05:58:26.932Z,49.05
2018-02-22T06:00:56.413Z,42.97
2018-02-22T06:03:25.624Z,43.17
2018-02-22T06:05:54.970Z,39.03
2018-02-22T06:08:24.198Z,41.60
2018-02-22T06:10:53.592Z,43.25
2018-02-22T06:13:22.825Z,43.83
2018-02-22T06:15:52.203Z,44.20
2018-02-22T06:18:21.444Z,48.35
2018-02-22T06:20:51.616Z,37.80
2018-02-22T06:23:20.842Z,40.85
2018-02-22T06:25:50.113Z,40.63
2018-02-22T06:28:19.400Z,37.92
2018-02-22T06:30:48.640Z,40.88
2018-02-22T06:33:18.737Z,33.33
2018-02-22T06:35:49.404Z,34.17
2018-02-22T06:38:18.771Z,34.45
2018-02-22T06:40:48.000Z,34.30
2018-02-22T06:43:18.203Z,37.67
2018-02-22T06:45:47.832Z,37.92
2018-02-22T06:48:17.092Z,39.05
2018-02-22T06:50:46.822Z,40.08
2018-02-22T06:53:16.440Z,35.28
2018-02-22T06:55:46.449Z,35.38
2018-02-22T06:58:16.177Z,39.60
2018-02-22T07:00:46.077Z,37.95
2018-02-22T07:03:15.389Z,45.15
2018-02-22T07:05:45.995Z,42.45
2018-02-22T07:08:15.214Z,56.58
2018-02-22T07:10:44.696Z,91.90
2018-02-22T07:13:13.928Z,35.92
2018-02-22T07:15:43.326Z,44.03
2018-02-22T07:18:13.461Z,44.38
2018-02-22T07:20:43.416Z,45.70
2018-02-22T07:23:16.887Z,35.78
2018-02-22T07:25:43.472Z,48.75
2018-02-22T07:28:14.102Z,40.00
2018-02-22T07:30:43.427Z,38.58
2018-02-22T07:33:13.468Z,35.70
2018-02-22T07:35:43.202Z,38.35
2018-02-22T07:38:12.439Z,38.47
2018-02-22T07:40:41.852Z,38.92
2018-02-22T07:43:11.906Z,37.90
2018-02-22T07:45:41.985Z,39.97
2018-02-22T07:48:11.218Z,39.08
2018-02-22T07:50:40.574Z,38.10
2018-02-22T07:53:10.003Z,46.17
2018-02-22T07:55:40.118Z,40.72
2018-02-22T07:58:09.646Z,38.45
2018-02-22T08:00:39.834Z,39.70
2018-02-22T08:03:09.096Z,47.53
2018-02-22T08:05:38.370Z,42.08
2018-02-22T08:08:08.271Z,36.50
2018-02-22T08:10:37.480Z,41.95
2018-02-22T08:13:06.792Z,44.38
2018-02-22T08:15:36.021Z,34.63
2018-02-22T08:18:05.335Z,37.90
2018-02-22T08:20:34.569Z,43.33
2018-02-22T08:23:03.950Z,38.50
2018-02-22T08:25:33.774Z,41.25
2018-02-22T08:28:03.079Z,43.08
2018-02-22T08:30:32.600Z,34.40
2018-02-22T08:33:02.373Z,45.85
2018-02-22T08:35:31.689Z,37.92
2018-02-22T08:38:01.105Z,39.33
2018-02-22T08:40:30.426Z,35.35
2018-02-22T08:42:59.632Z,36.50
2018-02-22T08:45:28.870Z,42.20
2018-02-22T08:47:58.186Z,40.12
2018-02-22T08:50:27.408Z,44.38
2018-02-22T08:52:57.732Z,39.65
2018-02-22T08:55:27.360Z,43.67
2018-02-22T08:57:56.823Z,48.67
2018-02-22T09:00:26.045Z,50.00
2018-02-22T09:02:55.409Z,46.92
2018-02-22T09:05:24.954Z,50.78
2018-02-22T09:07:54.962Z,48.28
2018-02-22T09:10:24.350Z,42.95
2018-02-22T09:12:53.997Z,40.53
2018-02-22T09:15:23.352Z,47.08
2018-02-22T09:17:52.581Z,43.15
2018-02-22T09:20:21.884Z,55.12
2018-02-22T09:22:51.896Z,42.50
2018-02-22T09:25:21.193Z,41.00
2018-02-22T09:27:51.189Z,47.00
2018-02-22T09:30:20.526Z,44.60
2018-02-22T09:32:49.892Z,42.38
2018-02-22T09:35:19.125Z,43.53
2018-02-22T09:37:48.469Z,43.17
2018-02-22T09:40:17.693Z,45.45
2018-02-22T09:42:47.019Z,43.80
2018-02-22T09:45:16.241Z,37.97
2018-02-22T09:47:45.588Z,44.22
2018-02-22T09:50:14.831Z,40.55
2018-02-22T09:52:44.218Z,40.47
2018-02-22T09:55:14.218Z,46.50
2018-02-22T09:57:43.457Z,40.58
2018-02-22T10:00:12.776Z,46.95
2018-02-22T10:02:42.020Z,44.63
2018-02-22T10:05:11.649Z,34.83
2018-02-22T10:07:40.850Z,39.40
2018-02-22T10:10:10.924Z,43.78
2018-02-22T10:12:40.148Z,35.90
2018-02-22T10:15:09.553Z,34.83
2018-02-22T10:17:38.785Z,36.15
2018-02-22T10:20:08.162Z,34.97
2018-02-22T10:22:39.073Z,33.47
2018-02-22T10:25:08.388Z,30.58
2018-02-22T10:27:37.846Z,31.87
2018-02-22T10:30:07.073Z,30.02
2018-02-22T10:32:36.505Z,31.90
2018-02-22T10:35:05.735Z,34.55
2018-02-22T10:37:35.049Z,33.55
2018-02-22T10:40:04.281Z,30.52
2018-02-22T10:42:33.620Z,43.78
2018-02-22T10:45:02.906Z,29.35
2018-02-22T10:47:32.426Z,31.62
2018-02-22T10:50:01.805Z,32.35
2018-02-22T10:52:31.020Z,33.00
2018-02-22T10:55:00.329Z,30.88
2018-02-22T10:57:29.570Z,32.78
2018-02-22T10:59:58.861Z,42.30
2018-02-22T11:02:34.593Z,35.50
2018-02-22T11:05:04.012Z,32.50
2018-02-22T11:07:33.285Z,27.55
2018-02-22T11:10:03.792Z,31.80
2018-02-22T11:12:33.297Z,32.08
2018-02-22T11:15:02.550Z,29.83
2018-02-22T11:17:31.915Z,27.45
2018-02-22T11:20:02.341Z,25.17
2018-02-22T11:22:31.928Z,32.63
2018-02-22T11:25:01.482Z,30.73
2018-02-22T11:27:30.952Z,28.90
2018-02-22T11:30:00.960Z,29.10
2018-02-22T11:32:30.329Z,27.98
2018-02-22T11:34:59.583Z,31.87
2018-02-22T11:37:28.804Z,29.35
2018-02-22T11:39:58.111Z,34.50
2018-02-22T11:42:27.341Z,28.17
2018-02-22T11:44:57.165Z,29.85
2018-02-22T11:47:26.397Z,28.60
2018-02-22T11:49:57.140Z,32.35
2018-02-22T11:52:27.139Z,30.75
2018-02-22T11:54:56.540Z,30.35
2018-02-22T11:57:25.799Z,29.60
2018-02-22T11:59:55.976Z,33.72
2018-02-22T12:02:25.225Z,31.55
2018-02-22T12:04:55.264Z,33.22
2018-02-22T12:07:24.597Z,29.80
2018-02-22T12:09:54.585Z,25.55
2018-02-22T12:12:25.015Z,33.45
2018-02-22T12:14:54.278Z,30.67
2018-02-22T12:17:23.600Z,35.40
2018-02-22T12:19:52.828Z,36.45
2018-02-22T12:22:22.828Z,33.13
2018-02-22T12:24:52.338Z,44.67
2018-02-22T12:27:21.946Z,35.85
2018-02-22T12:29:51.264Z,36.55
2018-02-22T12:32:21.221Z,31.92
2018-02-22T12:34:51.096Z,41.67
2018-02-22T12:37:20.321Z,33.17
2018-02-22T12:39:49.709Z,30.40
2018-02-22T12:42:18.948Z,29.52
2018-02-22T12:44:48.253Z,28.50
2018-02-22T12:47:17.478Z,34.05
2018-02-22T12:49:46.832Z,34.00
2018-02-22T12:52:16.052Z,27.58
2018-02-22T12:54:45.285Z,31.27
2018-02-22T12:57:14.686Z,30.00
2018-02-22T12:59:43.916Z,31.42
2018-02-22T13:02:13.212Z,26.37
2018-02-22T13:04:42.442Z,34.97
2018-02-22T13:07:11.756Z,29.37
2018-02-22T13:09:40.985Z,27.58
2018-02-22T13:12:10.310Z,25.35
2018-02-22T13:14:40.319Z,26.42
2018-02-22T13:17:09.626Z,30.02
2018-02-22T13:19:38.852Z,23.35
2018-02-22T13:22:08.319Z,22.35
2018-02-22T13:24:38.316Z,29.33
2018-02-22T13:27:07.553Z,27.13
2018-02-22T13:29:37.040Z,20.40
2018-02-22T13:32:07.044Z,23.25
2018-02-22T13:34:37.885Z,24.48
2018-02-22T13:37:24.829Z,29.58
2018-02-22T13:39:54.306Z,23.80
2018-02-22T13:42:23.571Z,27.17
2018-02-22T13:45:10.720Z,28.45
2018-02-22T13:47:39.946Z,31.58
2018-02-22T13:50:26.933Z,30.65
2018-02-22T13:52:56.174Z,27.65
2018-02-22T13:55:25.482Z,29.73
2018-02-22T13:57:54.708Z,24.50
2018-02-22T14:00:41.690Z,28.23
2018-02-22T14:03:10.930Z,25.40
2018-02-22T14:05:40.373Z,30.00
2018-02-22T14:08:10.368Z,25.70
2018-02-22T14:10:39.596Z,25.10
2018-02-22T14:13:09.660Z,29.58
2018-02-22T14:15:38.924Z,25.08
2018-02-22T14:18:08.293Z,24.70
2018-02-22T14:20:37.522Z,22.15
2018-02-22T14:23:07.296Z,22.05
2018-02-22T14:25:36.540Z,22.73
2018-02-22T14:28:05.910Z,24.80
2018-02-22T14:30:35.137Z,25.88
2018-02-22T14:33:04.522Z,26.10
2018-02-22T14:35:34.057Z,27.02
2018-02-22T14:38:03.717Z,25.17
2018-02-22T14:40:33.141Z,20.58
2018-02-22T14:43:02.748Z,21.75
2018-02-22T14:45:32.830Z,22.52
2018-02-22T14:48:02.370Z,22.02
2018-02-22T14:50:32.464Z,25.35
2018-02-22T14:53:01.679Z,25.52
2018-02-22T14:55:30.982Z,29.35
2018-02-22T14:58:00.216Z,25.55
2018-02-22T15:00:29.568Z,25.92
2018-02-22T15:02:58.793Z,34.15
2018-02-22T15:05:28.898Z,30.77
2018-02-22T15:07:58.140Z,27.13
2018-02-22T15:10:28.312Z,27.42
2018-02-22T15:12:59.613Z,27.55
2018-02-22T15:15:28.848Z,31.10
2018-02-22T15:17:58.372Z,29.55
2018-02-22T15:20:27.593Z,32.97
2018-02-22T15:22:56.985Z,31.15
2018-02-22T15:25:26.213Z,28.87
2018-02-22T15:27:56.373Z,31.92
2018-02-22T15:30:25.602Z,30.15
2018-02-22T15:32:55.000Z,28.67
2018-02-22T15:35:24.499Z,27.55
2018-02-22T15:37:53.922Z,32.83
2018-02-22T15:40:23.204Z,28.15
2018-02-22T15:42:52.441Z,25.50
2018-02-22T15:45:22.660Z,37.95
2018-02-22T15:47:51.888Z,26.65
2018-02-22T15:50:21.336Z,35.95
2018-02-22T15:52:50.561Z,28.20
2018-02-22T15:55:19.923Z,26.05
2018-02-22T15:57:49.620Z,28.00
2018-02-22T16:00:19.141Z,27.23
2018-02-22T16:02:48.381Z,33.13
2018-02-22T16:05:17.608Z,32.33
2018-02-22T16:07:48.278Z,42.67
2018-02-22T16:10:18.271Z,36.47
2018-02-22T16:12:47.612Z,39.42
2018-02-22T16:15:16.837Z,37.65
2018-02-22T16:17:46.800Z,36.92
2018-02-22T16:20:16.027Z,40.97
2018-02-22T16:22:46.135Z,42.85
2018-02-22T16:25:15.358Z,40.33
2018-02-22T16:27:44.677Z,47.28
2018-02-22T16:30:14.069Z,44.15
2018-02-22T16:32:43.523Z,41.15
2018-02-22T16:35:12.756Z,43.33
2018-02-22T16:37:41.978Z,45.30
2018-02-22T16:40:11.335Z,49.28
2018-02-22T16:42:40.551Z,39.00
2018-02-22T16:45:10.627Z,43.20
2018-02-22T16:47:39.851Z,40.78
2018-02-22T16:50:09.253Z,42.88
2018-02-22T16:52:38.485Z,50.35
2018-02-22T16:55:07.854Z,41.53
2018-02-22T16:57:37.112Z,42.75
2018-02-22T17:00:06.483Z,40.80
2018-02-22T17:02:36.100Z,41.03
2018-02-22T17:05:07.538Z,45.38
2018-02-22T17:07:37.550Z,39.53
2018-02-22T17:10:06.797Z,45.85
2018-02-22T17:12:36.452Z,44.28
2018-02-22T17:15:05.993Z,41.90
2018-02-22T17:17:46.261Z,48.40
2018-02-22T17:20:15.519Z,47.33
2018-02-22T17:22:45.122Z,42.72
2018-02-22T17:25:14.368Z,48.20
2018-02-22T17:27:49.254Z,52.20
2018-02-22T17:30:26.117Z,51.22
2018-02-22T17:32:55.416Z,44.85
2018-02-22T17:35:30.078Z,43.58
2018-02-22T17:38:03.725Z,43.67
2018-02-22T17:40:34.887Z,47.20
2018-02-22T17:43:04.716Z,45.00
2018-02-22T17:45:34.100Z,40.40
2018-02-22T17:48:04.210Z,38.28
2018-02-22T17:50:34.356Z,38.58
2018-02-22T17:53:03.586Z,42.70
2018-02-22T17:55:32.914Z,44.88
2018-02-22T17:58:02.744Z,44.00
2018-02-22T18:00:32.144Z,41.25
2018-02-22T18:03:01.894Z,39.67
2018-02-22T18:05:31.194Z,39.78
2018-02-22T18:08:00.421Z,26.55
2018-02-22T18:10:29.800Z,21.42
2018-02-22T18:12:59.791Z,32.10
2018-02-22T18:15:29.158Z,30.85
2018-02-22T18:17:58.382Z,28.02
2018-02-22T18:20:27.710Z,20.85
2018-02-22T18:22:56.945Z,21.50
2018-02-22T18:25:26.176Z,22.25
2018-02-22T18:27:56.040Z,24.90
2018-02-22T18:30:25.287Z,18.80
2018-02-22T18:32:54.592Z,28.05
2018-02-22T18:35:24.350Z,24.30
2018-02-22T18:37:59.409Z,25.85
2018-02-22T18:40:34.082Z,15.65
2018-02-22T18:43:08.948Z,12.93
2018-02-22T18:45:38.168Z,17.42
2018-02-22T18:48:07.502Z,16.08
2018-02-22T18:50:36.731Z,13.60
2018-02-22T18:53:06.262Z,18.77
2018-02-22T18:55:36.266Z,15.38
2018-02-22T18:58:05.628Z,13.98
2018-02-22T19:00:34.867Z,13.23
2018-02-22T19:03:04.234Z,10.10
2018-02-22T19:05:34.778Z,14.23
2018-02-22T19:08:04.229Z,13.43
2018-02-22T19:10:34.109Z,13.75
2018-02-22T19:13:03.325Z,19.95
2018-02-22T19:15:33.121Z,14.48
2018-02-22T19:18:02.358Z,10.27
2018-02-22T19:20:31.666Z,13.80
2018-02-22T19:23:00.935Z,14.30
2018-02-22T19:25:30.266Z,9.57
2018-02-22T19:27:59.497Z,11.07
2018-02-22T19:30:28.940Z,24.15
2018-02-22T19:32:58.164Z,9.10
2018-02-22T19:35:27.408Z,12.35
2018-02-22T19:37:56.720Z,22.70
2018-02-22T19:40:25.947Z,9.15
2018-02-22T19:42:55.340Z,9.88
2018-02-22T19:45:27.784Z,10.18
2018-02-22T19:47:57.111Z,14.60
2018-02-22T19:50:26.320Z,9.95
2018-02-22T19:52:57.140Z,8.82
2018-02-22T19:55:26.487Z,10.10
2018-02-22T19:57:55.696Z,10.15
2018-02-22T20:00:24.997Z,9.52
2018-02-22T20:02:54.320Z,7.70
2018-02-22T20:05:23.635Z,7.50
2018-02-22T20:07:52.872Z,9.20
2018-02-22T20:10:22.192Z,8.93
2018-02-22T20:12:51.407Z,6.07
2018-02-22T20:15:20.633Z,8.15
2018-02-22T20:17:49.996Z,7.20
2018-02-22T20:20:19.172Z,7.65
2018-02-22T20:22:48.473Z,7.87
2018-02-22T20:25:17.688Z,6.40
2018-02-22T20:27:47.392Z,7.80
2018-02-22T20:30:17.364Z,5.32
2018-02-22T20:32:46.686Z,8.10
2018-02-22T20:35:15.906Z,9.48
2018-02-22T20:37:45.922Z,7.65
2018-02-22T20:40:15.203Z,10.95
2018-02-22T20:42:44.421Z,10.00
2018-02-22T20:45:14.648Z,8.57
2018-02-22T20:47:43.867Z,5.93
2018-02-22T20:50:13.168Z,5.20
2018-02-22T20:55:48.889Z,6.57
2018-02-22T20:58:18.119Z,6.78
2018-02-22T21:00:48.173Z,9.40
2018-02-22T21:03:30.127Z,7.18
2018-02-22T21:05:59.492Z,10.07
2018-02-22T21:08:29.389Z,8.23
2018-02-22T21:10:59.310Z,13.38
2018-02-22T21:13:28.532Z,5.80
2018-02-22T21:15:57.867Z,20.92
2018-02-22T21:18:27.559Z,7.20
2018-02-22T21:20:56.865Z,6.95
2018-02-22T21:23:26.249Z,10.93
2018-02-22T21:25:55.480Z,11.48
2018-02-22T21:28:24.820Z,8.43
2018-02-22T21:30:54.041Z,8.43
2018-02-22T21:33:23.366Z,11.95
2018-02-22T21:35:52.585Z,9.63
2018-02-22T21:38:21.942Z,12.18
2018-02-22T21:40:51.165Z,6.87
2018-02-22T21:43:21.220Z,11.35
2018-02-22T21:45:50.514Z,7.32
2018-02-22T21:48:19.746Z,7.55
2018-02-22T21:50:49.164Z,10.20
2018-02-22T21:53:18.393Z,9.23
2018-02-22T21:55:47.771Z,5.40
2018-02-22T21:58:16.991Z,9.25
2018-02-22T22:00:46.366Z,9.82
2018-02-22T22:03:15.600Z,39.22
2018-02-22T22:05:44.917Z,20.48
2018-02-22T22:08:14.145Z,9.60
2018-02-22T22:10:43.492Z,5.35
2018-02-22T22:13:12.700Z,8.60
2018-02-22T22:15:43.274Z,17.75
2018-02-22T22:18:12.703Z,11.88
2018-02-22T22:20:42.153Z,9.52
2018-02-22T22:23:11.504Z,9.65
2018-02-22T22:25:41.034Z,22.33
2018-02-22T22:28:11.150Z,11.52
2018-02-22T22:30:40.879Z,6.43
2018-02-22T22:33:10.961Z,7.00
2018-02-22T22:35:40.173Z,7.65
2018-02-22T22:38:09.487Z,14.05
2018-02-22T22:40:38.700Z,7.65
2018-02-22T22:43:08.176Z,8.63
2018-02-22T22:45:37.576Z,15.05
2018-02-22T22:48:07.476Z,8.00
2018-02-22T22:50:36.816Z,15.48
2018-02-22T22:53:06.046Z,9.82
2018-02-22T22:55:35.706Z,13.23
2018-02-22T22:58:06.048Z,7.55
2018-02-22T23:00:35.532Z,12.75
2018-02-22T23:03:04.755Z,16.40
2018-02-22T23:05:34.076Z,8.43
2018-02-22T23:08:03.350Z,18.12
2018-02-22T23:10:32.757Z,21.48
2018-02-22T23:13:02.778Z,8.88
2018-02-22T23:15:32.987Z,10.27
2018-02-22T23:18:02.221Z,8.13
2018-02-22T23:20:31.579Z,9.32
2018-02-22T23:23:00.799Z,6.75
2018-02-22T23:25:30.901Z,9.52
2018-02-22T23:28:00.214Z,8.32
2018-02-22T23:30:29.396Z,9.18
2018-02-22T23:32:58.712Z,10.55
2018-02-22T23:35:28.703Z,15.15
2018-02-22T23:37:58.231Z,14.57
2018-02-22T23:40:33.389Z,12.37
2018-02-22T23:43:02.701Z,16.05
2018-02-22T23:45:32.021Z,9.50
2018-02-22T23:48:01.228Z,7.65
2018-02-22T23:50:30.497Z,9.40
2018-02-22T23:52:59.856Z,10.20
2018-02-22T23:55:29.090Z,13.18
2018-02-22T23:57:58.456Z,8.93
